sensor_id;sensor_type;location;lat;lon;timestamp;pressure;altitude;pressure_sealevel;temperature;humidity
46007;BME280;31738;50.188;8.524;2023-05-20T00:00:34;99316.63;;;15.97;54.13
46007;BME280;31738;50.188;8.524;2023-05-20T00:02:59;99313.91;;;15.97;54.08
46007;BME280;31738;50.188;8.524;2023-05-20T00:05:25;99310.25;;;15.88;54.66
46007;BME280;31738;50.188;8.524;2023-05-20T00:07:50;99322.69;;;15.89;54.69
46007;BME280;31738;50.188;8.524;2023-05-20T00:10:16;99317.03;;;15.85;55.08
46007;BME280;31738;50.188;8.524;2023-05-20T00:12:41;99307.03;;;15.86;55.00
46007;BME280;31738;50.188;8.524;2023-05-20T00:15:07;99299.50;;;15.83;55.26
46007;BME280;31738;50.188;8.524;2023-05-20T00:17:33;99301.91;;;15.84;55.43
46007;BME280;31738;50.188;8.524;2023-05-20T00:19:58;99291.09;;;15.84;55.47
46007;BME280;31738;50.188;8.524;2023-05-20T00:22:24;99291.97;;;15.80;56.18
46007;BME280;31738;50.188;8.524;2023-05-20T00:24:50;99286.56;;;15.80;56.51
46007;BME280;31738;50.188;8.524;2023-05-20T00:27:16;99286.06;;;15.78;56.19
46007;BME280;31738;50.188;8.524;2023-05-20T00:29:41;99290.69;;;15.77;56.36
46007;BME280;31738;50.188;8.524;2023-05-20T00:32:06;99277.75;;;15.74;56.72
46007;BME280;31738;50.188;8.524;2023-05-20T00:34:32;99282.34;;;15.74;56.79
46007;BME280;31738;50.188;8.524;2023-05-20T00:36:58;99277.50;;;15.71;56.68
46007;BME280;31738;50.188;8.524;2023-05-20T00:39:23;99274.81;;;15.71;56.63
46007;BME280;31738;50.188;8.524;2023-05-20T00:41:49;99273.28;;;15.65;56.63
46007;BME280;31738;50.188;8.524;2023-05-20T00:44:15;99272.75;;;15.63;57.09
46007;BME280;31738;50.188;8.524;2023-05-20T00:46:42;99273.41;;;15.55;57.68
46007;BME280;31738;50.188;8.524;2023-05-20T00:49:07;99265.28;;;15.55;57.55
46007;BME280;31738;50.188;8.524;2023-05-20T00:51:33;99255.88;;;15.52;57.71
46007;BME280;31738;50.188;8.524;2023-05-20T00:53:58;99246.38;;;15.55;58.01
46007;BME280;31738;50.188;8.524;2023-05-20T00:56:24;99248.28;;;15.54;58.11
46007;BME280;31738;50.188;8.524;2023-05-20T00:58:51;99239.94;;;15.51;58.05
46007;BME280;31738;50.188;8.524;2023-05-20T01:01:16;99248.13;;;15.46;58.27
46007;BME280;31738;50.188;8.524;2023-05-20T01:03:42;99244.94;;;15.44;58.82
46007;BME280;31738;50.188;8.524;2023-05-20T01:06:07;99249.53;;;15.43;58.85
46007;BME280;31738;50.188;8.524;2023-05-20T01:08:33;99248.47;;;15.39;58.69
46007;BME280;31738;50.188;8.524;2023-05-20T01:11:07;99249.03;;;15.36;58.95
46007;BME280;31738;50.188;8.524;2023-05-20T01:13:42;99242.31;;;15.33;59.60
46007;BME280;31738;50.188;8.524;2023-05-20T01:16:09;99231.56;;;15.28;59.69
46007;BME280;31738;50.188;8.524;2023-05-20T01:18:35;99243.19;;;15.29;59.53
46007;BME280;31738;50.188;8.524;2023-05-20T01:21:02;99239.19;;;15.26;59.43
46007;BME280;31738;50.188;8.524;2023-05-20T01:23:37;99234.56;;;15.27;59.90
46007;BME280;31738;50.188;8.524;2023-05-20T01:26:07;99234.13;;;15.20;59.97
46007;BME280;31738;50.188;8.524;2023-05-20T01:28:36;99227.47;;;15.12;60.77
46007;BME280;31738;50.188;8.524;2023-05-20T01:31:05;99220.97;;;15.13;60.82
46007;BME280;31738;50.188;8.524;2023-05-20T01:33:38;99213.38;;;15.15;60.88
46007;BME280;31738;50.188;8.524;2023-05-20T01:36:06;99211.25;;;15.12;61.14
46007;BME280;31738;50.188;8.524;2023-05-20T01:38:34;99218.03;;;15.10;61.16
46007;BME280;31738;50.188;8.524;2023-05-20T01:41:01;99200.22;;;15.09;61.21
46007;BME280;31738;50.188;8.524;2023-05-20T01:43:29;99207.22;;;15.10;61.39
46007;BME280;31738;50.188;8.524;2023-05-20T01:45:55;99200.56;;;15.02;61.83
46007;BME280;31738;50.188;8.524;2023-05-20T01:48:20;99208.09;;;15.05;61.92
46007;BME280;31738;50.188;8.524;2023-05-20T01:50:46;99200.09;;;15.00;61.98
46007;BME280;31738;50.188;8.524;2023-05-20T01:53:11;99204.09;;;15.03;62.09
46007;BME280;31738;50.188;8.524;2023-05-20T01:55:37;99197.09;;;15.02;62.00
46007;BME280;31738;50.188;8.524;2023-05-20T01:58:04;99199.56;;;14.98;62.46
46007;BME280;31738;50.188;8.524;2023-05-20T02:00:31;99199.56;;;14.98;62.40
46007;BME280;31738;50.188;8.524;2023-05-20T02:02:58;99192.09;;;14.90;62.50
46007;BME280;31738;50.188;8.524;2023-05-20T02:05:23;99186.13;;;14.93;62.64
46007;BME280;31738;50.188;8.524;2023-05-20T02:07:49;99183.69;;;14.92;62.58
46007;BME280;31738;50.188;8.524;2023-05-20T02:10:14;99187.34;;;14.82;63.60
46007;BME280;31738;50.188;8.524;2023-05-20T02:12:39;99178.66;;;14.85;62.95
46007;BME280;31738;50.188;8.524;2023-05-20T02:15:05;99167.28;;;14.88;63.02
46007;BME280;31738;50.188;8.524;2023-05-20T02:17:31;99171.06;;;14.87;63.12
46007;BME280;31738;50.188;8.524;2023-05-20T02:19:56;99169.47;;;14.86;63.34
46007;BME280;31738;50.188;8.524;2023-05-20T02:22:22;99170.06;;;14.83;63.55
46007;BME280;31738;50.188;8.524;2023-05-20T02:24:48;99157.03;;;14.85;63.59
46007;BME280;31738;50.188;8.524;2023-05-20T02:27:14;99160.84;;;14.84;63.73
46007;BME280;31738;50.188;8.524;2023-05-20T02:29:42;99162.44;;;14.85;64.05
46007;BME280;31738;50.188;8.524;2023-05-20T02:32:07;99147.41;;;14.79;64.07
46007;BME280;31738;50.188;8.524;2023-05-20T02:34:33;99154.44;;;14.80;64.48
46007;BME280;31738;50.188;8.524;2023-05-20T02:36:58;99149.91;;;14.76;64.76
46007;BME280;31738;50.188;8.524;2023-05-20T02:39:24;99150.63;;;14.81;64.40
46007;BME280;31738;50.188;8.524;2023-05-20T02:41:50;99142.22;;;14.83;64.64
46007;BME280;31738;50.188;8.524;2023-05-20T02:44:15;99140.84;;;14.85;64.44
46007;BME280;31738;50.188;8.524;2023-05-20T02:46:41;99148.16;;;14.85;64.57
46007;BME280;31738;50.188;8.524;2023-05-20T02:49:06;99143.03;;;14.83;64.83
46007;BME280;31738;50.188;8.524;2023-05-20T02:51:32;99144.63;;;14.84;64.87
46007;BME280;31738;50.188;8.524;2023-05-20T02:53:58;99144.06;;;14.87;64.82
46007;BME280;31738;50.188;8.524;2023-05-20T02:56:23;99145.69;;;14.88;65.24
46007;BME280;31738;50.188;8.524;2023-05-20T02:58:49;99146.69;;;14.92;64.97
46007;BME280;31738;50.188;8.524;2023-05-20T03:01:15;99150.69;;;14.95;64.80
46007;BME280;31738;50.188;8.524;2023-05-20T03:03:41;99139.13;;;14.94;65.27
46007;BME280;31738;50.188;8.524;2023-05-20T03:06:06;99136.91;;;14.96;65.40
46007;BME280;31738;50.188;8.524;2023-05-20T03:08:32;99141.22;;;14.97;65.35
46007;BME280;31738;50.188;8.524;2023-05-20T03:11:01;99149.81;;;14.99;65.22
46007;BME280;31738;50.188;8.524;2023-05-20T03:13:27;99143.94;;;14.97;65.17
46007;BME280;31738;50.188;8.524;2023-05-20T03:15:52;99137.50;;;14.93;65.35
46007;BME280;31738;50.188;8.524;2023-05-20T03:18:18;99134.78;;;14.93;65.55
46007;BME280;31738;50.188;8.524;2023-05-20T03:20:45;99134.50;;;14.95;65.20
46007;BME280;31738;50.188;8.524;2023-05-20T03:23:11;99132.59;;;14.95;65.52
46007;BME280;31738;50.188;8.524;2023-05-20T03:25:37;99135.31;;;14.95;65.73
46007;BME280;31738;50.188;8.524;2023-05-20T03:28:03;99125.03;;;14.97;65.67
46007;BME280;31738;50.188;8.524;2023-05-20T03:30:32;99132.66;;;14.90;66.20
46007;BME280;31738;50.188;8.524;2023-05-20T03:32:57;99128.91;;;14.91;66.46
46007;BME280;31738;50.188;8.524;2023-05-20T03:35:24;99120.69;;;14.96;66.11
46007;BME280;31738;50.188;8.524;2023-05-20T03:37:49;99117.50;;;14.94;66.35
46007;BME280;31738;50.188;8.524;2023-05-20T03:40:20;99122.91;;;14.94;66.19
46007;BME280;31738;50.188;8.524;2023-05-20T03:42:46;99118.28;;;14.95;65.94
46007;BME280;31738;50.188;8.524;2023-05-20T03:45:12;99121.56;;;14.92;66.62
46007;BME280;31738;50.188;8.524;2023-05-20T03:47:51;99120.50;;;14.93;66.73
46007;BME280;31738;50.188;8.524;2023-05-20T03:50:17;99118.56;;;14.93;66.53
46007;BME280;31738;50.188;8.524;2023-05-20T03:52:42;99112.22;;;14.84;67.05
46007;BME280;31738;50.188;8.524;2023-05-20T03:55:08;99114.06;;;14.89;66.53
46007;BME280;31738;50.188;8.524;2023-05-20T03:57:35;99101.88;;;14.91;66.75
46007;BME280;31738;50.188;8.524;2023-05-20T04:00:02;99101.88;;;14.91;66.67
46007;BME280;31738;50.188;8.524;2023-05-20T04:02:30;99112.16;;;14.89;67.05
46007;BME280;31738;50.188;8.524;2023-05-20T04:04:56;99108.34;;;14.90;66.93
46007;BME280;31738;50.188;8.524;2023-05-20T04:07:22;99106.75;;;14.89;67.04
46007;BME280;31738;50.188;8.524;2023-05-20T04:09:48;99107.28;;;14.91;67.13
46007;BME280;31738;50.188;8.524;2023-05-20T04:12:13;99103.53;;;14.87;67.20
46007;BME280;31738;50.188;8.524;2023-05-20T04:14:39;99097.06;;;14.88;67.35
46007;BME280;31738;50.188;8.524;2023-05-20T04:17:06;99098.66;;;14.89;67.24
46007;BME280;31738;50.188;8.524;2023-05-20T04:19:31;99105.47;;;14.87;67.48
46007;BME280;31738;50.188;8.524;2023-05-20T04:21:59;99105.00;;;14.80;68.31
46007;BME280;31738;50.188;8.524;2023-05-20T04:24:25;99104.19;;;14.79;68.53
46007;BME280;31738;50.188;8.524;2023-05-20T04:26:52;99104.19;;;14.79;68.06
46007;BME280;31738;50.188;8.524;2023-05-20T04:29:18;99104.78;;;14.76;68.14
46007;BME280;31738;50.188;8.524;2023-05-20T04:31:47;99095.50;;;14.82;68.13
46007;BME280;31738;50.188;8.524;2023-05-20T04:34:13;99098.19;;;14.82;68.56
46007;BME280;31738;50.188;8.524;2023-05-20T04:36:39;99101.50;;;14.79;68.71
46007;BME280;31738;50.188;8.524;2023-05-20T04:39:04;99104.41;;;14.83;68.85
46007;BME280;31738;50.188;8.524;2023-05-20T04:41:31;99096.03;;;14.84;68.45
46007;BME280;31738;50.188;8.524;2023-05-20T04:43:57;99099.81;;;14.83;68.45
46007;BME280;31738;50.188;8.524;2023-05-20T04:46:24;99097.63;;;14.85;69.07
46007;BME280;31738;50.188;8.524;2023-05-20T04:48:50;99099.25;;;14.86;69.30
46007;BME280;31738;50.188;8.524;2023-05-20T04:51:15;99095.44;;;14.87;68.98
46007;BME280;31738;50.188;8.524;2023-05-20T04:53:42;99089.44;;;14.90;68.96
46007;BME280;31738;50.188;8.524;2023-05-20T04:56:09;99102.97;;;14.90;69.47
46007;BME280;31738;50.188;8.524;2023-05-20T04:58:35;99089.44;;;14.90;69.04
46007;BME280;31738;50.188;8.524;2023-05-20T05:01:01;99087.84;;;14.89;68.90
46007;BME280;31738;50.188;8.524;2023-05-20T05:03:27;99091.06;;;14.91;69.13
46007;BME280;31738;50.188;8.524;2023-05-20T05:05:58;99095.88;;;14.94;68.98
46007;BME280;31738;50.188;8.524;2023-05-20T05:08:24;99090.78;;;14.93;69.06
46007;BME280;31738;50.188;8.524;2023-05-20T05:10:53;99090.69;;;14.98;69.31
46007;BME280;31738;50.188;8.524;2023-05-20T05:13:19;99093.09;;;14.99;69.44
46007;BME280;31738;50.188;8.524;2023-05-20T05:15:44;99086.31;;;15.02;69.41
46007;BME280;31738;50.188;8.524;2023-05-20T05:18:10;99085.44;;;15.06;69.48
46007;BME280;31738;50.188;8.524;2023-05-20T05:20:37;99083.22;;;15.08;69.69
46007;BME280;31738;50.188;8.524;2023-05-20T05:23:02;99077.75;;;15.13;69.37
46007;BME280;31738;50.188;8.524;2023-05-20T05:25:28;99075.56;;;15.15;69.54
46007;BME280;31738;50.188;8.524;2023-05-20T05:27:53;99075.97;;;15.22;69.97
46007;BME280;31738;50.188;8.524;2023-05-20T05:30:20;99078.59;;;15.27;69.56
46007;BME280;31738;50.188;8.524;2023-05-20T05:32:46;99077.44;;;15.33;69.03
46007;BME280;31738;50.188;8.524;2023-05-20T05:35:12;99075.75;;;15.37;69.03
46007;BME280;31738;50.188;8.524;2023-05-20T05:37:38;99077.59;;;15.42;69.33
46007;BME280;31738;50.188;8.524;2023-05-20T05:40:05;99082.13;;;15.47;69.11
46007;BME280;31738;50.188;8.524;2023-05-20T05:42:32;99078.81;;;15.50;69.07
46007;BME280;31738;50.188;8.524;2023-05-20T05:44:58;99082.59;;;15.49;68.94
46007;BME280;31738;50.188;8.524;2023-05-20T05:47:24;99071.72;;;15.54;68.72
46007;BME280;31738;50.188;8.524;2023-05-20T05:49:54;99077.34;;;15.57;68.89
46007;BME280;31738;50.188;8.524;2023-05-20T05:52:19;99068.94;;;15.59;68.71
46007;BME280;31738;50.188;8.524;2023-05-20T05:54:46;99067.22;;;15.63;68.77
46007;BME280;31738;50.188;8.524;2023-05-20T05:57:11;99066.91;;;15.64;68.43
46007;BME280;31738;50.188;8.524;2023-05-20T05:59:37;99066.13;;;15.64;69.05
46007;BME280;31738;50.188;8.524;2023-05-20T06:02:03;99070.44;;;15.65;68.57
46007;BME280;31738;50.188;8.524;2023-05-20T06:04:29;99065.25;;;15.68;68.79
46007;BME280;31738;50.188;8.524;2023-05-20T06:06:56;99064.94;;;15.70;69.15
46007;BME280;31738;50.188;8.524;2023-05-20T06:09:21;99058.50;;;15.66;69.32
46007;BME280;31738;50.188;8.524;2023-05-20T06:11:47;99071.94;;;15.71;68.97
46007;BME280;31738;50.188;8.524;2023-05-20T06:14:12;99075.34;;;15.76;69.33
46007;BME280;31738;50.188;8.524;2023-05-20T06:16:38;99069.34;;;15.79;69.00
46007;BME280;31738;50.188;8.524;2023-05-20T06:19:03;99070.06;;;15.85;69.67
46007;BME280;31738;50.188;8.524;2023-05-20T06:21:31;99068.56;;;15.92;69.10
46007;BME280;31738;50.188;8.524;2023-05-20T06:23:56;99072.28;;;15.96;68.52
46007;BME280;31738;50.188;8.524;2023-05-20T06:26:22;99065.34;;;16.04;68.51
46007;BME280;31738;50.188;8.524;2023-05-20T06:28:47;99065.78;;;16.11;68.68
46007;BME280;31738;50.188;8.524;2023-05-20T06:31:13;99054.81;;;16.16;68.60
46007;BME280;31738;50.188;8.524;2023-05-20T06:33:39;99061.78;;;16.22;68.63
46007;BME280;31738;50.188;8.524;2023-05-20T06:36:08;99072.97;;;16.29;67.92
46007;BME280;31738;50.188;8.524;2023-05-20T06:38:34;99062.66;;;16.31;68.05
46007;BME280;31738;50.188;8.524;2023-05-20T06:40:59;99068.69;;;16.28;67.94
46007;BME280;31738;50.188;8.524;2023-05-20T06:43:25;99075.78;;;16.24;68.28
46007;BME280;31738;50.188;8.524;2023-05-20T06:45:53;99063.16;;;16.19;68.07
46007;BME280;31738;50.188;8.524;2023-05-20T06:48:35;99065.16;;;16.27;67.83
46007;BME280;31738;50.188;8.524;2023-05-20T06:51:00;99065.75;;;16.38;68.19
46007;BME280;31738;50.188;8.524;2023-05-20T06:53:26;99066.88;;;16.37;67.81
46007;BME280;31738;50.188;8.524;2023-05-20T06:55:54;99066.34;;;16.35;67.95
46007;BME280;31738;50.188;8.524;2023-05-20T06:58:20;99070.06;;;16.39;67.61
46007;BME280;31738;50.188;8.524;2023-05-20T07:00:46;99064.56;;;16.44;67.84
46007;BME280;31738;50.188;8.524;2023-05-20T07:03:13;99070.97;;;16.48;67.83
46007;BME280;31738;50.188;8.524;2023-05-20T07:05:38;99059.06;;;16.49;68.34
46007;BME280;31738;50.188;8.524;2023-05-20T07:08:05;99059.56;;;16.51;67.75
46007;BME280;31738;50.188;8.524;2023-05-20T07:10:31;99062.75;;;16.53;67.83
46007;BME280;31738;50.188;8.524;2023-05-20T07:12:56;99066.94;;;16.59;68.08
46007;BME280;31738;50.188;8.524;2023-05-20T07:15:22;99060.25;;;16.56;68.02
46007;BME280;31738;50.188;8.524;2023-05-20T07:17:47;99068.66;;;16.55;67.85
46007;BME280;31738;50.188;8.524;2023-05-20T07:20:13;99067.56;;;16.56;67.75
46007;BME280;31738;50.188;8.524;2023-05-20T07:22:39;99068.16;;;16.53;67.76
46007;BME280;31738;50.188;8.524;2023-05-20T07:25:11;99062.13;;;16.56;67.63
46007;BME280;31738;50.188;8.524;2023-05-20T07:27:37;99065.88;;;16.60;67.68
46007;BME280;31738;50.188;8.524;2023-05-20T07:30:03;99060.91;;;16.62;67.42
46007;BME280;31738;50.188;8.524;2023-05-20T07:32:30;99062.53;;;16.63;67.75
46007;BME280;31738;50.188;8.524;2023-05-20T07:34:56;99060.31;;;16.65;67.64
46007;BME280;31738;50.188;8.524;2023-05-20T07:37:21;99068.44;;;16.65;67.13
46007;BME280;31738;50.188;8.524;2023-05-20T07:39:47;99054.88;;;16.65;67.58
46007;BME280;31738;50.188;8.524;2023-05-20T07:42:12;99053.66;;;16.71;67.67
46007;BME280;31738;50.188;8.524;2023-05-20T07:44:41;99052.38;;;16.68;67.69
46007;BME280;31738;50.188;8.524;2023-05-20T07:47:07;99058.47;;;16.74;67.67
46007;BME280;31738;50.188;8.524;2023-05-20T07:49:33;99048.53;;;16.83;67.60
46007;BME280;31738;50.188;8.524;2023-05-20T07:51:59;99044.09;;;16.87;67.41
46007;BME280;31738;50.188;8.524;2023-05-20T07:54:25;99048.28;;;16.93;67.90
46007;BME280;31738;50.188;8.524;2023-05-20T07:56:51;99041.34;;;17.00;66.84
46007;BME280;31738;50.188;8.524;2023-05-20T07:59:17;99037.91;;;17.08;67.20
46007;BME280;31738;50.188;8.524;2023-05-20T08:01:46;99039.06;;;17.16;66.72
46007;BME280;31738;50.188;8.524;2023-05-20T08:04:15;99049.19;;;17.24;66.37
46007;BME280;31738;50.188;8.524;2023-05-20T08:06:40;99034.72;;;17.37;66.82
46007;BME280;31738;50.188;8.524;2023-05-20T08:09:12;99040.19;;;17.68;65.86
46007;BME280;31738;50.188;8.524;2023-05-20T08:11:43;99026.25;;;17.91;65.71
46007;BME280;31738;50.188;8.524;2023-05-20T08:14:09;99031.00;;;18.16;65.20
46007;BME280;31738;50.188;8.524;2023-05-20T08:16:40;99028.78;;;18.35;64.94
46007;BME280;31738;50.188;8.524;2023-05-20T08:19:06;99047.38;;;18.50;64.03
46007;BME280;31738;50.188;8.524;2023-05-20T08:21:34;99041.47;;;18.57;63.04
46007;BME280;31738;50.188;8.524;2023-05-20T08:24:00;99051.09;;;18.72;62.70
46007;BME280;31738;50.188;8.524;2023-05-20T08:26:26;99063.72;;;18.85;61.82
46007;BME280;31738;50.188;8.524;2023-05-20T08:28:52;99070.13;;;18.89;61.09
46007;BME280;31738;50.188;8.524;2023-05-20T08:31:18;99068.84;;;18.86;62.41
46007;BME280;31738;50.188;8.524;2023-05-20T08:33:44;99069.81;;;18.82;61.96
46007;BME280;31738;50.188;8.524;2023-05-20T08:36:09;99074.59;;;18.85;61.45
46007;BME280;31738;50.188;8.524;2023-05-20T08:38:35;99076.06;;;18.91;62.82
46007;BME280;31738;50.188;8.524;2023-05-20T08:41:00;99074.28;;;19.12;62.69
46007;BME280;31738;50.188;8.524;2023-05-20T08:43:26;99071.44;;;19.34;61.24
46007;BME280;31738;50.188;8.524;2023-05-20T08:45:52;99062.75;;;19.49;59.91
46007;BME280;31738;50.188;8.524;2023-05-20T08:48:21;99075.25;;;19.41;59.61
46007;BME280;31738;50.188;8.524;2023-05-20T08:50:49;99078.63;;;19.13;60.06
46007;BME280;31738;50.188;8.524;2023-05-20T08:53:15;99095.06;;;18.91;60.99
46007;BME280;31738;50.188;8.524;2023-05-20T08:55:42;99079.09;;;18.81;62.01
46007;BME280;31738;50.188;8.524;2023-05-20T08:58:08;99071.72;;;18.73;62.85
46007;BME280;31738;50.188;8.524;2023-05-20T09:00:34;99083.88;;;18.66;63.31
46007;BME280;31738;50.188;8.524;2023-05-20T09:03:01;99081.63;;;18.68;63.21
46007;BME280;31738;50.188;8.524;2023-05-20T09:05:28;99085.13;;;18.60;62.19
46007;BME280;31738;50.188;8.524;2023-05-20T09:08:04;99087.50;;;18.53;62.35
46007;BME280;31738;50.188;8.524;2023-05-20T09:10:31;99079.53;;;18.48;63.36
46007;BME280;31738;50.188;8.524;2023-05-20T09:12:59;99076.81;;;18.57;63.06
46007;BME280;31738;50.188;8.524;2023-05-20T09:15:25;99076.50;;;18.58;64.33
46007;BME280;31738;50.188;8.524;2023-05-20T09:17:51;99091.84;;;18.63;63.05
46007;BME280;31738;50.188;8.524;2023-05-20T09:20:16;99082.75;;;18.67;62.71
46007;BME280;31738;50.188;8.524;2023-05-20T09:22:42;99073.16;;;18.87;62.01
46007;BME280;31738;50.188;8.524;2023-05-20T09:25:08;99075.56;;;19.06;61.01
46007;BME280;31738;50.188;8.524;2023-05-20T09:27:36;99076.22;;;19.20;62.17
46007;BME280;31738;50.188;8.524;2023-05-20T09:30:05;99076.22;;;19.37;61.88
46007;BME280;31738;50.188;8.524;2023-05-20T09:32:31;99075.56;;;19.57;60.46
46007;BME280;31738;50.188;8.524;2023-05-20T09:34:57;99067.84;;;19.76;60.18
46007;BME280;31738;50.188;8.524;2023-05-20T09:37:24;99072.38;;;20.01;60.02
46007;BME280;31738;50.188;8.524;2023-05-20T09:40:03;99074.88;;;20.23;58.43
46007;BME280;31738;50.188;8.524;2023-05-20T09:42:49;99084.66;;;20.24;58.39
46007;BME280;31738;50.188;8.524;2023-05-20T09:45:15;99084.81;;;20.19;58.76
46007;BME280;31738;50.188;8.524;2023-05-20T09:47:40;99091.34;;;20.26;58.48
46007;BME280;31738;50.188;8.524;2023-05-20T09:50:08;99067.50;;;20.23;58.53
46007;BME280;31738;50.188;8.524;2023-05-20T09:52:37;99078.97;;;20.38;57.88
46007;BME280;31738;50.188;8.524;2023-05-20T09:55:04;99081.66;;;20.46;56.97
46007;BME280;31738;50.188;8.524;2023-05-20T09:57:33;99101.97;;;20.28;57.45
46007;BME280;31738;50.188;8.524;2023-05-20T09:59:58;99095.78;;;20.02;57.91
46007;BME280;31738;50.188;8.524;2023-05-20T10:02:24;99098.97;;;20.04;57.57
46007;BME280;31738;50.188;8.524;2023-05-20T10:04:51;99091.75;;;20.08;57.53
46007;BME280;31738;50.188;8.524;2023-05-20T10:07:50;99077.31;;;20.16;57.43
46007;BME280;31738;50.188;8.524;2023-05-20T10:19:09;99077.13;;;20.50;58.51
46007;BME280;31738;50.188;8.524;2023-05-20T10:21:36;99086.22;;;20.33;58.99
46007;BME280;31738;50.188;8.524;2023-05-20T10:24:06;99076.13;;;20.34;57.37
46007;BME280;31738;50.188;8.524;2023-05-20T10:26:40;99067.19;;;20.54;57.96
46007;BME280;31738;50.188;8.524;2023-05-20T10:29:18;99067.34;;;20.78;57.82
46007;BME280;31738;50.188;8.524;2023-05-20T10:31:48;99077.06;;;20.88;57.83
46007;BME280;31738;50.188;8.524;2023-05-20T10:34:18;99076.13;;;20.84;56.88
46007;BME280;31738;50.188;8.524;2023-05-20T10:36:46;99073.13;;;20.77;57.68
46007;BME280;31738;50.188;8.524;2023-05-20T10:39:15;99074.91;;;20.73;59.68
46007;BME280;31738;50.188;8.524;2023-05-20T10:41:44;99087.00;;;20.63;59.15
46007;BME280;31738;50.188;8.524;2023-05-20T10:44:09;99081.66;;;20.46;58.42
46007;BME280;31738;50.188;8.524;2023-05-20T10:46:35;99087.19;;;20.29;58.66
46007;BME280;31738;50.188;8.524;2023-05-20T10:49:01;99094.13;;;20.18;57.56
46007;BME280;31738;50.188;8.524;2023-05-20T10:51:30;99074.59;;;20.16;59.07
46007;BME280;31738;50.188;8.524;2023-05-20T10:54:00;99083.06;;;20.23;58.72
46007;BME280;31738;50.188;8.524;2023-05-20T10:56:25;99079.84;;;20.29;58.71
46007;BME280;31738;50.188;8.524;2023-05-20T10:58:52;99084.41;;;20.38;57.86
46007;BME280;31738;50.188;8.524;2023-05-20T11:01:23;99076.47;;;20.53;56.34
46007;BME280;31738;50.188;8.524;2023-05-20T11:03:50;99056.28;;;20.75;58.94
46007;BME280;31738;50.188;8.524;2023-05-20T11:06:16;99047.41;;;20.86;56.95
46007;BME280;31738;50.188;8.524;2023-05-20T11:08:43;99043.41;;;21.04;56.38
46007;BME280;31738;50.188;8.524;2023-05-20T11:11:10;99043.28;;;21.21;55.20
46007;BME280;31738;50.188;8.524;2023-05-20T11:13:36;99050.84;;;21.36;56.11
46007;BME280;31738;50.188;8.524;2023-05-20T11:16:01;99047.91;;;21.41;54.59
46007;BME280;31738;50.188;8.524;2023-05-20T11:18:29;99034.69;;;21.43;55.49
46007;BME280;31738;50.188;8.524;2023-05-20T11:21:00;99039.47;;;21.46;54.73
46007;BME280;31738;50.188;8.524;2023-05-20T11:23:26;99053.94;;;21.47;53.30
46007;BME280;31738;50.188;8.524;2023-05-20T11:25:54;99039.81;;;21.45;54.52
46007;BME280;31738;50.188;8.524;2023-05-20T11:28:20;99049.84;;;21.53;54.15
46007;BME280;31738;50.188;8.524;2023-05-20T11:30:46;99043.34;;;21.45;54.43
46007;BME280;31738;50.188;8.524;2023-05-20T11:33:14;99040.81;;;21.40;55.81
46007;BME280;31738;50.188;8.524;2023-05-20T11:35:46;99039.81;;;21.45;54.34
46007;BME280;31738;50.188;8.524;2023-05-20T11:38:12;99035.63;;;21.47;55.71
46007;BME280;31738;50.188;8.524;2023-05-20T11:40:42;99048.00;;;21.45;55.76
46007;BME280;31738;50.188;8.524;2023-05-20T11:43:11;99057.84;;;21.25;56.21
46007;BME280;31738;50.188;8.524;2023-05-20T11:45:44;99051.41;;;21.09;55.63
46007;BME280;31738;50.188;8.524;2023-05-20T11:48:10;99067.97;;;21.04;55.47
46007;BME280;31738;50.188;8.524;2023-05-20T11:50:43;99045.53;;;21.19;54.37
46007;BME280;31738;50.188;8.524;2023-05-20T11:53:10;99043.28;;;21.21;55.52
46007;BME280;31738;50.188;8.524;2023-05-20T11:55:58;99039.25;;;21.19;54.96
46007;BME280;31738;50.188;8.524;2023-05-20T11:58:30;99045.50;;;21.40;53.70
46007;BME280;31738;50.188;8.524;2023-05-20T12:00:56;99027.69;;;21.66;54.97
46007;BME280;31738;50.188;8.524;2023-05-20T12:03:22;99026.63;;;21.79;54.43
46007;BME280;31738;50.188;8.524;2023-05-20T12:05:48;99028.44;;;21.87;52.58
46007;BME280;31738;50.188;8.524;2023-05-20T12:08:15;99037.78;;;21.98;52.39
46007;BME280;31738;50.188;8.524;2023-05-20T12:10:40;99046.44;;;21.88;52.24
46007;BME280;31738;50.188;8.524;2023-05-20T12:13:06;99038.25;;;21.88;52.95
46007;BME280;31738;50.188;8.524;2023-05-20T12:15:36;99048.75;;;21.66;52.67
46007;BME280;31738;50.188;8.524;2023-05-20T12:18:02;99048.88;;;21.69;53.29
46007;BME280;31738;50.188;8.524;2023-05-20T12:20:28;99043.00;;;21.79;54.01
46007;BME280;31738;50.188;8.524;2023-05-20T12:22:55;99037.78;;;21.86;52.95
46007;BME280;31738;50.188;8.524;2023-05-20T12:25:20;99044.28;;;21.94;52.70
46007;BME280;31738;50.188;8.524;2023-05-20T12:27:47;99037.34;;;21.97;52.88
46007;BME280;31738;50.188;8.524;2023-05-20T12:30:17;99053.28;;;22.07;51.09
46007;BME280;31738;50.188;8.524;2023-05-20T12:32:44;99060.59;;;22.15;51.19
46007;BME280;31738;50.188;8.524;2023-05-20T12:35:11;99061.22;;;21.87;51.08
46007;BME280;31738;50.188;8.524;2023-05-20T12:37:37;99047.31;;;21.80;52.68
46007;BME280;31738;50.188;8.524;2023-05-20T12:40:03;99052.38;;;22.03;52.33
46007;BME280;31738;50.188;8.524;2023-05-20T12:42:40;99058.06;;;22.10;50.96
46007;BME280;31738;50.188;8.524;2023-05-20T12:45:07;99055.13;;;22.03;52.75
46007;BME280;31738;50.188;8.524;2023-05-20T12:47:33;99052.94;;;21.96;52.36
46007;BME280;31738;50.188;8.524;2023-05-20T12:50:00;99038.25;;;22.01;53.30
46007;BME280;31738;50.188;8.524;2023-05-20T12:52:25;99058.63;;;22.03;52.25
46007;BME280;31738;50.188;8.524;2023-05-20T12:54:53;99054.19;;;21.98;52.63
46007;BME280;31738;50.188;8.524;2023-05-20T12:57:18;99058.75;;;22.07;51.81
46007;BME280;31738;50.188;8.524;2023-05-20T12:59:44;99056.69;;;22.04;51.49
46007;BME280;31738;50.188;8.524;2023-05-20T13:02:10;99051.69;;;22.06;51.50
46007;BME280;31738;50.188;8.524;2023-05-20T13:04:35;99058.28;;;21.92;51.25
46007;BME280;31738;50.188;8.524;2023-05-20T13:07:02;99044.81;;;21.75;51.29